Time;durP1;ratioP1;P1;durP2;ratioP2;P2;SDS_P1;SDS_P2;PMS_P1;PMS_P2;Temp;Humidity;BMP_temperature;BMP_pressure;BME280_temperature;BME280_humidity;BME280_pressure;Samples;Min_cycle;Max_cycle;Signal;HPM_P1;HPM_P2
2023/05/02 00:00:10;;;;;;;0.50;0.50;;;;;;;8.76;96.10;96966.69;29395;210;63005;-90
2023/05/02 00:00:44;;;;;;;0.50;0.50;;;;;;;8.77;96.22;96965.59;29394;231;64013;-89
2023/05/02 00:01:17;;;;;;;0.50;0.50;;;;;;;8.78;96.29;96969.09;29395;196;63015;-89
2023/05/02 00:01:50;;;;;;;0.50;0.50;;;;;;;8.77;96.12;96967.47;29395;242;63009;-90
2023/05/02 00:02:23;;;;;;;0.60;0.60;;;;;;;8.76;96.12;96971.28;29395;299;63017;-90
2023/05/02 00:02:55;;;;;;;0.50;0.50;;;;;;;8.76;95.64;96966.69;29395;267;63009;-90
2023/05/02 00:03:27;;;;;;;0.50;0.50;;;;;;;8.78;95.77;96974.50;29395;233;63004;-89
2023/05/02 00:03:59;;;;;;;0.50;0.50;;;;;;;8.77;95.75;96975.59;29395;253;63008;-89
2023/05/02 00:04:30;;;;;;;0.40;0.40;;;;;;;8.76;95.52;96977.50;29395;247;63005;-90
2023/05/02 00:05:05;;;;;;;0.50;0.50;;;;;;;8.79;95.29;96978.84;29395;199;63009;-90
2023/05/02 00:05:36;;;;;;;0.50;0.50;;;;;;;8.79;95.32;96970.72;29395;204;63005;-89
2023/05/02 00:06:10;;;;;;;0.50;0.50;;;;;;;8.77;95.12;96968.28;29394;209;64013;-90
2023/05/02 00:06:41;;;;;;;0.50;0.50;;;;;;;8.79;95.43;96970.72;29395;209;63005;-92
2023/05/02 00:07:13;;;;;;;0.50;0.50;;;;;;;8.80;95.17;96966.94;29395;252;63009;-90
2023/05/02 00:07:46;;;;;;;0.50;0.50;;;;;;;8.82;95.14;96973.69;29395;196;63005;-92
2023/05/02 00:08:22;;;;;;;0.50;0.50;;;;;;;8.81;94.78;96968.53;29395;203;63009;-91
2023/05/02 00:09:14;;;;;;;0.50;0.50;;;;;;;8.82;94.48;96968.28;29417;233;63004;-91
2023/05/02 00:09:47;;;;;;;0.50;0.50;;;;;;;8.83;94.79;96974.50;29395;258;63009;-90
2023/05/02 00:10:25;;;;;;;0.50;0.50;;;;;;;8.84;94.58;96968.00;29395;258;63004;-91
2023/05/02 00:11:18;;;;;;;0.50;0.50;;;;;;;8.82;95.09;96964.75;29395;246;63025;-93
2023/05/02 00:12:11;;;;;;;0.50;0.50;;;;;;;8.78;95.19;96967.22;29394;247;64009;-91
2023/05/02 00:12:49;;;;;;;0.50;0.50;;;;;;;8.79;95.00;96973.44;29395;222;63009;-92
2023/05/02 00:13:22;;;;;;;0.50;0.50;;;;;;;8.79;95.51;96962.59;29395;205;63005;-92
2023/05/02 00:13:54;;;;;;;0.50;0.50;;;;;;;8.79;94.94;96966.13;29395;222;63009;-93
2023/05/02 00:14:25;;;;;;;0.50;0.50;;;;;;;8.80;95.05;96961.53;29395;229;63005;-94
2023/05/02 00:14:56;;;;;;;0.50;0.50;;;;;;;8.79;94.74;96965.31;29395;253;63009;-92
2023/05/02 00:15:28;;;;;;;0.50;0.50;;;;;;;8.79;95.26;96965.31;29395;252;63004;-93
2023/05/02 00:15:59;;;;;;;0.50;0.50;;;;;;;8.78;95.20;96964.50;29395;253;63009;-92
2023/05/02 00:16:30;;;;;;;0.50;0.50;;;;;;;8.77;95.45;96962.06;29395;276;63004;-90
2023/05/02 00:17:03;;;;;;;0.50;0.50;;;;;;;8.77;95.16;96962.06;29395;216;63009;-92
2023/05/02 00:17:36;;;;;;;0.50;0.50;;;;;;;8.76;95.28;96965.88;29394;247;64009;-91
2023/05/02 00:18:07;;;;;;;0.50;0.50;;;;;;;8.76;95.48;96965.88;29394;213;64013;-91
2023/05/02 00:18:44;;;;;;;0.50;0.50;;;;;;;8.74;95.53;96966.16;29395;252;63004;-92
2023/05/02 00:19:18;;;;;;;0.60;0.60;;;;;;;8.73;95.60;96962.63;29395;215;63008;-91
2023/05/02 00:19:51;;;;;;;0.50;0.50;;;;;;;8.73;95.61;96965.34;29395;206;63005;-90
2023/05/02 00:20:36;;;;;;;0.50;0.50;;;;;;;8.70;96.00;96957.78;29395;207;63009;-92
2023/05/02 00:21:31;;;;;;;0.50;0.50;;;;;;;8.68;95.79;96964.53;29395;204;63005;-91
2023/05/02 00:22:05;;;;;;;0.50;0.50;;;;;;;8.67;95.78;96969.16;29395;250;63009;-91
2023/05/02 00:22:44;;;;;;;0.50;0.50;;;;;;;8.66;95.97;96962.13;29416;219;64009;-89
2023/05/02 00:23:27;;;;;;;0.50;0.50;;;;;;;8.65;95.78;96965.94;29395;274;63009;-89
2023/05/02 00:24:20;;;;;;;0.50;0.50;;;;;;;8.65;96.24;96962.44;29395;211;63004;-91
2023/05/02 00:24:56;;;;;;;0.50;0.50;;;;;;;8.60;96.01;96971.38;29396;209;63009;-90
2023/05/02 00:25:54;;;;;;;0.50;0.50;;;;;;;8.59;96.03;96961.63;29396;218;63004;-91
2023/05/02 00:26:27;;;;;;;0.50;0.50;;;;;;;8.60;96.02;96963.25;29396;239;63009;-91
2023/05/02 00:27:19;;;;;;;0.50;0.50;;;;;;;8.59;96.08;96966.25;29396;199;63005;-91
2023/05/02 00:28:40;;;;;;;1.30;1.30;;;;;;;8.54;96.35;96964.38;29395;232;64013;-92
2023/05/02 00:29:46;;;;;;;0.50;0.50;;;;;;;8.57;96.52;96969.22;29396;267;63005;-90
2023/05/02 00:31:15;;;;;;;0.50;0.50;;;;;;;8.61;96.05;96959.47;29395;203;64013;-91
2023/05/02 00:31:56;;;;;;;;;;;;;;;8.61;96.44;96970.28;29997;985;6000;-91
2023/05/02 00:32:31;;;;;;;0.50;0.50;;;;;;;8.60;95.92;96962.44;29401;202;63004;-90
2023/05/02 00:33:08;;;;;;;0.50;0.50;;;;;;;8.58;96.20;96965.44;29396;202;63008;-90
2023/05/02 00:34:01;;;;;;;0.50;0.50;;;;;;;8.60;96.33;96963.25;29396;223;63005;-90
2023/05/02 00:34:34;;;;;;;0.50;0.50;;;;;;;8.59;96.12;96967.06;29396;218;63009;-92
2023/05/02 00:35:12;;;;;;;0.50;0.50;;;;;;;8.56;95.98;96962.19;29396;209;63005;-92
2023/05/02 00:35:44;;;;;;;0.50;0.50;;;;;;;8.57;95.79;96971.12;29395;196;64013;-92
2023/05/02 00:36:21;;;;;;;0.50;0.50;;;;;;;8.58;96.09;96961.91;29396;256;63005;-92
2023/05/02 00:36:53;;;;;;;0.50;0.50;;;;;;;8.58;96.23;96960.03;29396;221;63009;-90
2023/05/02 00:37:29;;;;;;;0.50;0.50;;;;;;;8.58;96.13;96965.44;29396;213;63005;-89
2023/05/02 00:38:01;;;;;;;0.50;0.50;;;;;;;8.59;95.98;96963.53;29395;223;64013;-88
2023/05/02 00:38:32;;;;;;;0.50;0.50;;;;;;;8.59;96.46;96967.06;29396;242;63004;-91
2023/05/02 00:39:04;;;;;;;0.50;0.50;;;;;;;8.57;96.33;96963.81;29396;238;63009;-90
2023/05/02 00:39:36;;;;;;;0.47;0.47;;;;;;;8.56;96.56;96962.19;29396;218;63004;-93
2023/05/02 00:40:09;;;;;;;0.50;0.50;;;;;;;8.57;96.42;96963.81;29396;237;63009;-91
2023/05/02 00:40:52;;;;;;;0.50;0.50;;;;;;;8.56;96.32;96962.19;29396;232;63004;-92
2023/05/02 00:41:25;;;;;;;0.50;0.50;;;;;;;8.56;96.53;96962.19;29396;223;63009;-91
2023/05/02 00:42:03;;;;;;;0.50;0.50;;;;;;;8.55;96.23;96962.47;29396;211;63005;-92
2023/05/02 00:42:44;;;;;;;0.50;0.50;;;;;;;8.53;96.47;96967.34;29396;203;63009;-92
2023/05/02 00:43:28;;;;;;;0.50;0.50;;;;;;;8.52;96.73;96961.13;29395;236;64009;-90
2023/05/02 00:44:07;;;;;;;0.50;0.50;;;;;;;8.54;97.24;96971.66;29396;207;63009;-89
2023/05/02 00:44:48;;;;;;;0.50;0.50;;;;;;;8.54;96.94;96967.06;29396;279;63005;-91
2023/05/02 00:45:48;;;;;;;0.50;0.50;;;;;;;8.54;97.24;96964.38;29396;227;63009;-91
2023/05/02 00:46:45;;;;;;;0.50;0.50;;;;;;;8.49;96.74;96956.28;29396;222;63004;-90
2023/05/02 00:47:17;;;;;;;0.50;0.50;;;;;;;8.47;97.11;96958.44;29396;244;63009;-91
2023/05/02 00:47:54;;;;;;;0.50;0.50;;;;;;;8.47;97.50;96955.75;29395;221;64009;-90
2023/05/02 00:48:26;;;;;;;0.50;0.50;;;;;;;8.48;97.69;96956.53;29396;216;63008;-92
2023/05/02 00:49:01;;;;;;;0.50;0.50;;;;;;;8.48;97.30;96965.47;29396;244;63005;-90
2023/05/02 00:50:04;;;;;;;0.50;0.50;;;;;;;8.50;97.72;96968.72;29396;252;63009;-92
2023/05/02 00:50:41;;;;;;;0.50;0.50;;;;;;;8.53;96.82;96961.94;29396;242;63005;-93
2023/05/02 00:51:15;;;;;;;0.50;0.50;;;;;;;8.53;97.06;96961.94;29396;241;63009;-92
2023/05/02 00:52:13;;;;;;;0.50;0.50;;;;;;;8.53;96.83;96964.66;29396;252;63005;-91
2023/05/02 00:53:14;;;;;;;0.50;0.50;;;;;;;8.48;97.37;96964.66;29396;241;63009;-91
2023/05/02 00:53:56;;;;;;;0.50;0.50;;;;;;;8.45;97.44;96968.72;29395;199;64009;-91
2023/05/02 00:54:30;;;;;;;0.50;0.50;;;;;;;8.46;97.42;96956.81;29396;226;63009;-92
2023/05/02 00:55:14;;;;;;;0.50;0.50;;;;;;;8.46;96.85;96959.53;29396;196;63004;-91
2023/05/02 00:55:48;;;;;;;0.50;0.50;;;;;;;8.44;97.12;96963.59;29396;223;63008;-90
2023/05/02 00:56:21;;;;;;;0.50;0.50;;;;;;;8.43;97.04;96968.19;29396;236;63005;-91
2023/05/02 00:56:54;;;;;;;6.05;5.85;;;;;;;8.43;97.07;96968.19;29396;198;63009;-91
2023/05/02 00:57:26;;;;;;;0.50;0.50;;;;;;;8.43;97.12;96968.19;29396;199;63005;-91
2023/05/02 00:58:01;;;;;;;0.50;0.50;;;;;;;8.42;97.13;96966.56;29396;243;63009;-90
2023/05/02 00:58:38;;;;;;;0.50;0.50;;;;;;;8.43;97.11;96962.78;29396;217;63005;-89
2023/05/02 00:59:14;;;;;;;0.50;0.50;;;;;;;8.45;97.29;96978.72;29395;217;64013;-91
2023/05/02 00:59:47;;;;;;;0.50;0.50;;;;;;;8.46;97.09;96966.84;29396;213;63005;-92
2023/05/02 01:00:33;;;;;;;0.50;0.50;;;;;;;8.47;97.04;96973.84;29396;210;63009;-90
2023/05/02 01:01:52;;;;;;;0.50;0.50;;;;;;;8.48;96.69;96970.88;29396;251;63004;-92
2023/05/02 01:03:00;;;;;;;0.50;0.50;;;;;;;8.48;96.83;96965.47;29396;233;63009;-90
2023/05/02 01:04:21;;;;;;;0.50;0.50;;;;;;;8.50;96.69;96968.72;29396;308;63004;-91
2023/05/02 01:05:18;;;;;;;0.50;0.50;;;;;;;8.51;96.41;96964.91;29395;246;64014;-90
2023/05/02 01:06:23;;;;;;;1.77;1.65;;;;;;;8.53;96.15;96968.16;29396;251;63005;-90
2023/05/02 01:08:10;;;;;;;0.50;0.50;;;;;;;8.49;96.19;96958.97;29396;224;63009;-91
2023/05/02 01:09:20;;;;;;;0.50;0.50;;;;;;;8.51;96.33;96970.31;29441;211;63004;-90
2023/05/02 01:10:53;;;;;;;0.50;0.50;;;;;;;8.55;96.19;96967.87;29374;199;64013;-90
2023/05/02 01:12:03;;;;;;;0.50;0.50;;;;;;;8.57;96.26;96971.94;29396;242;64009;-91
2023/05/02 01:13:22;;;;;;;0.50;0.50;;;;;;;8.64;95.71;96966.22;29397;241;63009;-91
2023/05/02 01:13:57;;;;;;;0.50;0.50;;;;;;;8.65;95.72;96979.47;29397;211;63008;-91
2023/05/02 01:14:39;;;;;;;0.50;0.50;;;;;;;8.66;95.55;96977.56;29397;212;63009;-92
2023/05/02 01:15:18;;;;;;;0.50;0.50;;;;;;;8.65;95.17;96975.94;29397;225;63004;-89
2023/05/02 01:15:54;;;;;;;0.50;0.50;;;;;;;8.63;95.70;96978.94;29397;245;63009;-90
2023/05/02 01:16:29;;;;;;;0.50;0.50;;;;;;;8.64;95.70;96974.34;29396;224;64009;-89
2023/05/02 01:17:10;;;;;;;0.50;0.50;;;;;;;8.63;95.71;96984.34;29397;202;63009;-91
2023/05/02 01:17:45;;;;;;;0.50;0.50;;;;;;;8.64;95.35;96982.44;29419;226;63004;-91
2023/05/02 01:18:27;;;;;;;0.50;0.50;;;;;;;8.66;95.91;96978.34;29397;228;63008;-91
2023/05/02 01:19:01;;;;;;;0.50;0.50;;;;;;;8.68;95.57;96976.19;29397;213;63005;-89
2023/05/02 01:19:38;;;;;;;0.50;0.50;;;;;;;8.64;95.41;96979.75;29396;218;63009;-89
2023/05/02 01:20:15;;;;;;;0.50;0.50;;;;;;;8.68;95.35;96984.28;29397;235;63005;-91
2023/05/02 01:20:52;;;;;;;0.50;0.50;;;;;;;8.68;95.58;96980.78;29397;234;63009;-91
2023/05/02 01:21:26;;;;;;;0.50;0.50;;;;;;;8.69;95.57;96982.41;29395;256;64009;-93
2023/05/02 01:22:03;;;;;;;0.50;0.50;;;;;;;8.69;95.21;96987.81;29397;221;63009;-91
2023/05/02 01:22:39;;;;;;;0.50;0.50;;;;;;;8.71;95.24;96980.22;29396;321;63004;-91
2023/05/02 01:23:36;;;;;;;0.50;0.50;;;;;;;8.71;95.94;96981.03;29396;280;63009;-90
2023/05/02 01:24:19;;;;;;;0.50;0.50;;;;;;;8.71;95.70;96988.34;29396;222;63011;-91
2023/05/02 01:25:30;;;;;;;0.50;0.50;;;;;;;8.69;96.41;96982.41;29396;197;63008;-91
2023/05/02 01:27:01;;;;;;;0.50;0.50;;;;;;;8.68;95.90;96981.59;29396;217;63005;-89
2023/05/02 01:27:47;;;;;;;0.50;0.50;;;;;;;8.66;95.68;96982.97;29395;219;64013;-92
2023/05/02 01:29:07;;;;;;;0.50;0.50;;;;;;;8.67;95.71;96979.97;29396;234;63005;-91
2023/05/02 01:29:42;;;;;;;0.50;0.50;;;;;;;8.70;95.48;96984.81;29396;223;63009;-90
2023/05/02 01:30:16;;;;;;;0.50;0.50;;;;;;;8.70;95.50;96984.00;29396;332;63004;-92
2023/05/02 01:30:50;;;;;;;0.50;0.50;;;;;;;8.70;95.15;96982.13;29396;204;63009;-90
2023/05/02 01:31:28;;;;;;;0.50;0.50;;;;;;;8.72;95.00;96987.25;29396;220;63004;-91
2023/05/02 01:32:01;;;;;;;0.50;0.50;;;;;;;8.72;94.82;96984.53;29395;229;64018;-89
2023/05/02 01:32:36;;;;;;;0.50;0.50;;;;;;;8.73;94.67;96984.28;29396;208;63004;-91
2023/05/02 01:33:13;;;;;;;0.50;0.50;;;;;;;8.74;94.98;96985.06;29396;202;63008;-90
2023/05/02 01:33:50;;;;;;;0.50;0.50;;;;;;;8.82;94.57;96986.41;29396;242;63001;-90
2023/05/02 01:34:24;;;;;;;0.50;0.50;;;;;;;8.90;93.11;96988.53;29396;233;63009;-90
2023/05/02 01:34:57;;;;;;;0.50;0.50;;;;;;;8.90;92.77;96983.13;29396;272;63005;-91
2023/05/02 01:35:32;;;;;;;0.50;0.50;;;;;;;8.88;92.85;96986.09;29396;214;63009;-90
2023/05/02 01:36:06;;;;;;;0.50;0.50;;;;;;;8.89;92.92;96978.78;29396;216;63010;-91
2023/05/02 01:37:05;;;;;;;0.50;0.50;;;;;;;8.88;94.05;96977.16;29396;248;63009;-90
2023/05/02 01:37:52;;;;;;;0.50;0.50;;;;;;;8.79;94.16;96982.34;29395;204;64001;-90
2023/05/02 01:38:27;;;;;;;0.50;0.50;;;;;;;8.80;94.45;96985.88;29396;246;63009;-89
2023/05/02 01:39:04;;;;;;;0.50;0.50;;;;;;;8.80;94.42;96988.56;29396;210;63004;-91
2023/05/02 01:39:55;;;;;;;0.50;0.50;;;;;;;8.80;94.63;96983.97;29396;204;63009;-92
2023/05/02 01:40:30;;;;;;;0.50;0.50;;;;;;;8.79;94.15;96992.38;29396;216;63004;-91
2023/05/02 01:41:43;;;;;;;0.50;0.50;;;;;;;8.80;94.45;96983.16;29396;219;63009;-91
2023/05/02 01:42:22;;;;;;;0.50;0.50;;;;;;;8.80;94.72;96983.16;29395;209;64009;-91
2023/05/02 01:43:51;;;;;;;;;;;;;;;;;;;;;
2023/05/02 01:45:20;;;;;;;0.50;0.50;;;;;;;8.74;94.46;96983.19;29396;203;63005;-90
2023/05/02 01:45:58;;;;;;;0.50;0.50;;;;;;;8.74;94.57;96980.47;29396;207;63009;-90
2023/05/02 01:46:37;;;;;;;0.50;0.50;;;;;;;8.72;94.60;96985.34;29396;239;63004;-92
2023/05/02 01:47:11;;;;;;;0.50;0.50;;;;;;;8.72;95.16;96984.53;29396;239;63009;-92
2023/05/02 01:47:45;;;;;;;0.50;0.50;;;;;;;8.70;95.25;96984.81;29395;231;64008;-91
2023/05/02 01:48:27;;;;;;;0.50;0.50;;;;;;;8.66;95.36;96983.75;29396;270;63008;-91
2023/05/02 01:49:05;;;;;;;0.50;0.50;;;;;;;8.63;95.46;96981.63;29396;230;63005;-92
2023/05/02 01:50:06;;;;;;;0.50;0.50;;;;;;;8.61;95.57;96986.50;29396;233;63009;-91
2023/05/02 01:51:17;;;;;;;0.50;0.50;;;;;;;8.59;95.66;96983.28;29396;237;63005;-91
2023/05/02 01:52:46;;;;;;;0.50;0.50;;;;;;;8.56;96.04;96983.81;29396;218;63009;-90
2023/05/02 01:54:12;;;;;;;0.50;0.50;;;;;;;8.55;95.59;96986.81;29395;218;64009;-94
2023/05/02 01:55:10;;;;;;;0.50;0.50;;;;;;;8.53;96.08;96994.38;29396;217;63008;-92
2023/05/02 01:55:52;;;;;;;0.50;0.50;;;;;;;8.53;95.97;96987.09;29396;203;63004;-90
2023/05/02 01:56:34;;;;;;;1.12;1.02;;;;;;;8.54;96.07;96986.00;29396;207;63009;-90
2023/05/02 01:57:11;;;;;;;0.50;0.50;;;;;;;8.51;96.32;96981.16;29395;209;64009;-91
2023/05/02 01:57:53;;;;;;;0.50;0.50;;;;;;;8.52;96.40;96993.59;29396;228;63009;-91
2023/05/02 01:59:03;;;;;;;0.50;0.50;;;;;;;8.50;95.97;96990.34;29396;202;63005;-92
2023/05/02 02:00:04;;;;;;;0.50;0.50;;;;;;;8.49;96.26;96994.12;29396;237;63009;-93
2023/05/02 02:01:30;;;;;;;0.50;0.50;;;;;;;8.49;96.28;96991.44;29396;198;63004;-93
2023/05/02 02:02:08;;;;;;;0.50;0.50;;;;;;;8.45;96.61;96993.06;29397;256;63009;-91
2023/05/02 02:03:19;;;;;;;0.50;0.50;;;;;;;8.43;96.88;96989.81;29395;209;64008;-91
2023/05/02 02:04:15;;;;;;;0.50;0.50;;;;;;;8.42;96.78;96999.03;29395;258;64014;-92
2023/05/02 02:04:49;;;;;;;0.60;0.60;;;;;;;8.41;97.06;96997.41;29396;222;63005;-91
2023/05/02 02:05:26;;;;;;;0.60;0.60;;;;;;;8.37;97.18;96990.91;29396;228;63009;-91
2023/05/02 02:06:02;;;;;;;0.50;0.50;;;;;;;8.37;97.16;96988.22;29397;230;63005;-91
2023/05/02 02:06:37;;;;;;;0.50;0.50;;;;;;;8.35;96.90;96987.69;29396;236;63009;-92
2023/05/02 02:07:35;;;;;;;0.50;0.50;;;;;;;8.34;97.23;96991.47;29396;248;63005;-90
2023/05/02 02:08:08;;;;;;;0.50;0.50;;;;;;;8.32;97.43;96991.75;29396;219;63009;-90
2023/05/02 02:08:40;;;;;;;0.50;0.50;;;;;;;8.32;97.24;96991.75;29396;197;63004;-90
2023/05/02 02:09:11;;;;;;;0.50;0.50;;;;;;;8.32;97.21;96993.59;29395;232;64013;-92
2023/05/02 02:09:43;;;;;;;0.50;0.50;;;;;;;8.31;97.33;96992.03;29396;205;63004;-91
2023/05/02 02:10:35;;;;;;;0.50;0.50;;;;;;;8.29;97.22;96988.78;29396;277;63008;-91
2023/05/02 02:11:12;;;;;;;0.50;0.50;;;;;;;8.30;97.32;96995.81;29397;218;63005;-90
2023/05/02 02:11:51;;;;;;;0.50;0.50;;;;;;;8.29;97.58;96999.59;29397;264;63022;-90
2023/05/02 02:12:35;;;;;;;0.50;0.50;;;;;;;8.29;97.36;96992.28;29397;199;63016;-90
2023/05/02 02:13:17;;;;;;;0.50;0.50;;;;;;;8.30;97.51;96990.41;29397;225;63009;-92
2023/05/02 02:14:01;;;;;;;0.50;0.50;;;;;;;8.31;97.28;96997.44;29397;222;63005;-91
2023/05/02 02:14:53;;;;;;;;;;;;;;;8.29;97.42;96992.28;29995;983;7009;-91
2023/05/02 02:15:31;;;;;;;0.50;0.50;;;;;;;8.29;97.31;96996.88;29401;203;63004;-93
2023/05/02 02:19:14;;;;;;;0.50;0.50;;;;;;;8.20;98.14;96998.53;29395;221;63004;-91
2023/05/02 02:20:24;;;;;;;0.50;0.50;;;;;;;8.20;97.68;97001.25;29393;203;64009;-92
2023/05/02 02:21:00;;;;;;;0.60;0.60;;;;;;;8.15;97.87;97002.06;29417;243;63009;-91
2023/05/02 02:21:37;;;;;;;0.50;0.50;;;;;;;8.15;97.77;97009.34;29395;203;63011;-92
2023/05/02 02:22:16;;;;;;;0.50;0.50;;;;;;;8.15;97.82;97003.94;29395;225;63009;-91
2023/05/02 02:22:51;;;;;;;0.50;0.50;;;;;;;8.15;98.07;97001.25;29395;259;63004;-91
2023/05/02 02:23:36;;;;;;;0.50;0.50;;;;;;;8.14;97.85;97013.13;29395;243;63009;-90
2023/05/02 02:24:09;;;;;;;0.50;0.50;;;;;;;8.11;98.11;97008.28;29395;232;63004;-91
2023/05/02 02:24:42;;;;;;;0.50;0.50;;;;;;;8.08;98.08;97015.84;29395;220;63008;-91
2023/05/02 02:25:16;;;;;;;0.50;0.50;;;;;;;8.08;98.58;97012.34;29393;221;64008;-91
2023/05/02 02:25:51;;;;;;;0.50;0.50;;;;;;;8.06;98.41;97018.00;29393;220;64013;-91
2023/05/02 02:26:23;;;;;;;0.50;0.50;;;;;;;8.02;98.49;97008.81;29395;197;63005;-92
2023/05/02 02:26:54;;;;;;;0.50;0.50;;;;;;;8.01;98.73;97014.50;29395;206;63009;-91
2023/05/02 02:27:26;;;;;;;0.50;0.50;;;;;;;7.98;98.95;97013.16;29395;202;63005;-91
2023/05/02 02:27:58;;;;;;;0.50;0.50;;;;;;;7.99;98.92;97017.47;29395;202;63009;-91
2023/05/02 02:28:31;;;;;;;0.50;0.50;;;;;;;7.98;99.14;97018.56;29395;197;63005;-91
2023/05/02 02:29:05;;;;;;;0.50;0.50;;;;;;;8.00;99.05;97016.41;29395;221;63009;-90
2023/05/02 02:29:36;;;;;;;0.50;0.50;;;;;;;7.99;99.05;97017.47;29395;230;63004;-91
2023/05/02 02:30:15;;;;;;;0.50;0.50;;;;;;;7.99;99.04;97020.19;29393;210;64013;-90
2023/05/02 02:30:58;;;;;;;0.55;0.55;;;;;;;7.96;99.19;97018.06;29392;275;64009;-56
2023/05/02 02:31:34;;;;;;;0.50;0.50;;;;;;;7.96;99.04;97012.66;29395;218;63004;-56
2023/05/02 02:32:05;;;;;;;0.50;0.50;;;;;;;7.96;99.19;97018.06;29395;210;63000;-56
2023/05/02 02:32:36;;;;;;;0.50;0.50;;;;;;;7.96;98.86;97018.06;29395;222;63004;-56
2023/05/02 02:33:08;;;;;;;0.50;0.50;;;;;;;7.94;99.27;97025.62;29395;216;63001;-56
2023/05/02 02:33:40;;;;;;;0.50;0.50;;;;;;;7.94;99.48;97019.41;29395;233;63005;-57
2023/05/02 02:34:11;;;;;;;0.50;0.50;;;;;;;7.93;99.23;97015.91;29395;204;63001;-56
2023/05/02 02:34:43;;;;;;;1.08;1.08;;;;;;;7.94;99.46;97017.50;29395;231;63005;-57
2023/05/02 02:35:14;;;;;;;0.50;0.50;;;;;;;7.95;99.31;97018.31;29395;217;63000;-56
2023/05/02 02:36:17;;;;;;;0.50;0.50;;;;;;;7.95;99.15;97015.63;29395;241;63005;-57
2023/05/02 02:37:16;;;;;;;0.50;0.50;;;;;;;7.94;99.32;97020.22;29393;208;64005;-56
2023/05/02 02:37:58;;;;;;;0.50;0.50;;;;;;;7.94;99.56;97025.62;29393;224;64009;-56
2023/05/02 02:38:49;;;;;;;0.50;0.50;;;;;;;7.95;99.72;97027.25;29395;218;63004;-56
2023/05/02 02:40:00;;;;;;;0.50;0.50;;;;;;;7.94;99.55;97024.81;29395;242;63009;-58
2023/05/02 02:40:43;;;;;;;0.50;0.50;;;;;;;7.91;99.63;97018.06;29395;219;63005;-56
2023/05/02 02:42:03;;;;;;;0.50;0.50;;;;;;;7.91;99.20;97026.16;29395;213;63009;-56
2023/05/02 02:43:17;;;;;;;0.50;0.50;;;;;;;7.92;99.36;97021.56;29395;251;63005;-56
2023/05/02 02:44:11;;;;;;;0.50;0.50;;;;;;;7.92;99.06;97027.78;29393;227;64028;-56
2023/05/02 02:44:55;;;;;;;0.50;0.50;;;;;;;7.92;99.07;97022.38;29395;203;63015;-57
2023/05/02 02:45:48;;;;;;;0.50;0.50;;;;;;;7.94;98.97;97024.81;29395;204;63009;-56
2023/05/02 02:47:20;;;;;;;0.50;0.50;;;;;;;7.97;98.87;97021.56;29395;202;63004;-58
2023/05/02 02:48:31;;;;;;;0.50;0.50;;;;;;;7.97;98.73;97018.88;29394;215;64009;-58
2023/05/02 02:49:26;;;;;;;0.50;0.50;;;;;;;7.95;98.61;97021.03;29395;250;63005;-58
2023/05/02 02:50:19;;;;;;;0.60;0.60;;;;;;;7.94;98.78;97025.62;29395;206;63009;-56
2023/05/02 02:51:18;;;;;;;0.50;0.50;;;;;;;7.92;99.15;97037.78;29395;227;63005;-57
2023/05/02 02:52:15;;;;;;;0.50;0.50;;;;;;;7.90;99.16;97035.34;29395;302;63009;-56
2023/05/02 02:53:03;;;;;;;0.50;0.50;;;;;;;7.90;99.34;97035.34;29393;227;64004;-56
2023/05/02 02:54:05;;;;;;;0.50;0.50;;;;;;;7.91;99.16;97036.16;29394;211;64009;-56
2023/05/02 02:54:45;;;;;;;0.60;0.60;;;;;;;7.91;99.00;97036.97;29417;238;63017;-57
2023/05/02 02:55:55;;;;;;;0.50;0.50;;;;;;;7.93;99.12;97039.41;29395;202;63008;-57
2023/05/02 02:56:31;;;;;;;0.50;0.50;;;;;;;7.93;99.59;97044.81;29395;288;63005;-56
2023/05/02 02:57:31;;;;;;;1.37;1.37;;;;;;;7.90;99.65;97045.34;29394;221;64009;-57
2023/05/02 02:58:57;;;;;;;0.82;0.82;;;;;;;7.89;99.93;97038.31;29395;197;63005;-57
2023/05/02 02:59:37;;;;;;;0.55;0.55;;;;;;;7.90;99.32;97038.06;29394;202;64009;-57
2023/05/02 03:00:18;;;;;;;0.50;0.50;;;;;;;7.92;99.58;97033.19;29395;250;63004;-57
2023/05/02 03:00:50;;;;;;;0.60;0.60;;;;;;;7.92;99.32;97041.28;29417;250;63009;-57
2023/05/02 03:01:26;;;;;;;0.50;0.50;;;;;;;7.92;99.58;97046.69;29395;208;63004;-56
2023/05/02 03:02:08;;;;;;;0.50;0.50;;;;;;;7.92;99.59;97046.69;29395;262;63009;-56
2023/05/02 03:02:42;;;;;;;0.50;0.50;;;;;;;7.94;99.67;97047.22;29395;331;63006;-57
2023/05/02 03:03:15;;;;;;;0.50;0.50;;;;;;;7.91;99.69;97053.19;29395;220;63009;-57
2023/05/02 03:03:48;;;;;;;0.50;0.50;;;;;;;7.86;99.80;97050.47;29395;218;63005;-57
2023/05/02 03:04:22;;;;;;;0.60;0.60;;;;;;;7.84;100.00;97047.22;29395;302;63009;-56
2023/05/02 03:04:56;;;;;;;0.50;0.50;;;;;;;7.85;100.00;97053.44;29394;214;64005;-56
2023/05/02 03:05:29;;;;;;;0.50;0.50;;;;;;;7.85;100.00;97056.97;29395;237;63009;-56
2023/05/02 03:06:03;;;;;;;0.50;0.50;;;;;;;7.87;100.00;97054.00;29395;215;63005;-56
2023/05/02 03:06:35;;;;;;;0.50;0.50;;;;;;;7.88;100.00;97058.31;29394;221;64009;-56
2023/05/02 03:07:07;;;;;;;0.50;0.50;;;;;;;7.89;100.00;97055.34;29395;264;63005;-57
2023/05/02 03:07:40;;;;;;;0.50;0.50;;;;;;;7.92;100.00;97057.50;29395;202;63009;-56
2023/05/02 03:08:12;;;;;;;0.50;0.50;;;;;;;7.98;100.00;97064.50;29395;202;63004;-56
2023/05/02 03:08:44;;;;;;;0.50;0.50;;;;;;;8.02;100.00;97060.16;29395;202;63009;-56
2023/05/02 03:09:19;;;;;;;0.47;0.47;;;;;;;8.06;99.92;97055.03;29395;231;63004;-57
2023/05/02 03:09:53;;;;;;;0.50;0.50;;;;;;;8.08;99.81;97059.09;29395;215;63008;-56
2023/05/02 03:10:24;;;;;;;0.50;0.50;;;;;;;8.10;99.69;97066.94;29394;234;64004;-56
2023/05/02 03:10:56;;;;;;;0.50;0.50;;;;;;;8.13;99.39;97062.88;29394;200;64009;-58
2023/05/02 03:11:27;;;;;;;0.50;0.50;;;;;;;8.15;99.29;97063.41;29394;244;64005;-57
2023/05/02 03:11:58;;;;;;;0.50;0.50;;;;;;;8.17;98.97;97061.25;29395;252;63009;-58
2023/05/02 03:12:29;;;;;;;0.50;0.50;;;;;;;8.18;98.85;97058.28;29395;228;63005;-58
2023/05/02 03:13:00;;;;;;;0.50;0.50;;;;;;;8.20;99.03;97066.91;29395;212;63009;-57
2023/05/02 03:13:32;;;;;;;0.50;0.50;;;;;;;8.20;98.78;97063.41;29394;203;64005;-56
2023/05/02 03:14:03;;;;;;;0.50;0.50;;;;;;;8.20;98.75;97066.91;29395;198;63018;-56
2023/05/02 03:14:36;;;;;;;0.50;0.50;;;;;;;8.21;98.75;97067.72;29395;218;63004;-56
2023/05/02 03:15:54;;;;;;;0.50;0.50;;;;;;;8.23;99.09;97065.56;29395;222;63009;-57
2023/05/02 03:16:38;;;;;;;0.50;0.50;;;;;;;8.22;99.00;97072.88;29395;223;63004;-56
2023/05/02 03:17:09;;;;;;;0.50;0.50;;;;;;;8.22;98.82;97078.28;29395;199;63008;-56
2023/05/02 03:17:41;;;;;;;0.50;0.50;;;;;;;8.24;98.93;97078.00;29395;196;63004;-57
2023/05/02 03:18:12;;;;;;;0.50;0.50;;;;;;;8.24;98.95;97072.59;29395;217;63009;-56
2023/05/02 03:18:44;;;;;;;0.50;0.50;;;;;;;8.26;98.90;97075.84;29394;204;64005;-57
2023/05/02 03:19:15;;;;;;;0.50;0.50;;;;;;;8.27;98.81;97072.84;29395;211;63019;-56
2023/05/02 03:19:46;;;;;;;0.50;0.50;;;;;;;8.27;98.46;97072.84;29395;197;63005;-56
2023/05/02 03:20:18;;;;;;;0.50;0.50;;;;;;;8.27;98.63;97069.34;29395;249;63009;-57
2023/05/02 03:20:49;;;;;;;0.50;0.50;;;;;;;8.28;98.42;97070.97;29395;212;63005;-57
2023/05/02 03:21:20;;;;;;;0.50;0.50;;;;;;;8.28;98.42;97076.38;29395;214;63009;-56
2023/05/02 03:21:51;;;;;;;0.55;0.55;;;;;;;8.28;98.70;97070.97;29395;277;63007;-56
2023/05/02 03:22:23;;;;;;;0.50;0.50;;;;;;;8.27;98.42;97075.56;29395;227;63009;-57
2023/05/02 03:22:54;;;;;;;0.50;0.50;;;;;;;8.28;98.52;97073.66;29395;212;63004;-56
2023/05/02 03:23:26;;;;;;;0.60;0.60;;;;;;;8.29;98.75;97075.28;29395;218;63009;-56
2023/05/02 03:25:02;;;;;;;0.50;0.50;;;;;;;8.30;98.71;97082.31;88182;220;64004;-92
2023/05/02 03:25:34;;;;;;;0.50;0.50;;;;;;;8.30;98.75;97076.91;29394;211;64009;-92
2023/05/02 03:26:48;;;;;;;0.50;0.50;;;;;;;8.31;98.49;97078.53;29395;213;63005;-92
2023/05/02 03:28:20;;;;;;;0.60;0.60;;;;;;;8.30;98.59;97079.63;29439;241;63009;-90
2023/05/02 03:29:30;;;;;;;0.50;0.50;;;;;;;8.29;98.62;97083.41;29373;218;63004;-91
2023/05/02 03:30:14;;;;;;;0.50;0.50;;;;;;;8.29;98.67;97076.09;29394;204;64013;-92
2023/05/02 03:30:48;;;;;;;0.50;0.50;;;;;;;8.29;98.86;97083.41;29395;228;63008;-91
2023/05/02 03:31:38;;;;;;;0.50;0.50;;;;;;;8.27;98.88;97088.25;29395;236;63009;-91
2023/05/02 03:32:18;;;;;;;0.50;0.50;;;;;;;8.25;99.06;97077.72;29395;229;63005;-91
2023/05/02 03:33:00;;;;;;;0.60;0.60;;;;;;;8.26;99.25;97083.94;29395;248;63009;-90
2023/05/02 03:34:06;;;;;;;0.50;0.50;;;;;;;8.25;99.25;97091.25;29395;215;63005;-90